Time;durP1;ratioP1;P1;durP2;ratioP2;P2;SDS_P1;SDS_P2;PMS_P1;PMS_P2;Temp;Humidity;BMP_temperature;BMP_pressure;BME280_temperature;BME280_humidity;BME280_pressure;Samples;Min_cycle;Max_cycle;Signal;HPM_P1;HPM_P2
2021/12/22 00:00:49;;;;;;;36.67;12.00;;;;;;;-3.10;100.00;100664.22;5033988;28;20049;-74
2021/12/22 00:03:34;;;;;;;40.92;13.55;;;;;;;-3.14;100.00;100666.59;5034075;28;20120;-74
2021/12/22 00:06:21;;;;;;;42.03;12.98;;;;;;;-3.12;100.00;100664.97;5034063;28;20433;-75
2021/12/22 00:09:06;;;;;;;67.10;16.85;;;;;;;-3.18;100.00;100673.28;5033329;28;20086;-74
2021/12/22 00:11:50;;;;;;;42.58;12.10;;;;;;;-3.11;100.00;100677.00;5033044;28;20459;-74
2021/12/22 00:14:35;;;;;;;35.15;11.27;;;;;;;-3.14;100.00;100682.84;5034128;28;20061;-74
2021/12/22 00:17:20;;;;;;;25.40;10.68;;;;;;;-3.16;100.00;100681.03;5033930;28;20046;-74
2021/12/22 00:20:06;;;;;;;25.67;10.40;;;;;;;-3.18;100.00;100686.09;5033018;28;20041;-74
2021/12/22 00:22:51;;;;;;;22.95;9.18;;;;;;;-3.24;100.00;100687.53;5033163;28;20104;-75
2021/12/22 00:25:35;;;;;;;24.08;9.60;;;;;;;-3.22;100.00;100696.13;5033970;28;20041;-74
2021/12/22 00:28:20;;;;;;;19.38;7.93;;;;;;;-3.31;100.00;100696.63;5033743;28;20067;-74
2021/12/22 00:31:11;;;;;;;14.88;8.00;;;;;;;-3.24;100.00;100687.53;5033685;28;20076;-74
2021/12/22 00:33:57;;;;;;;16.00;7.43;;;;;;;-3.21;100.00;100690.22;5033039;28;20436;-75
2021/12/22 00:36:41;;;;;;;17.38;8.68;;;;;;;-3.30;100.00;100693.25;5032886;28;20038;-74
2021/12/22 00:39:26;;;;;;;19.30;8.00;;;;;;;-3.22;100.00;100691.88;5033580;28;20044;-75
2021/12/22 00:42:12;;;;;;;16.80;8.10;;;;;;;-3.27;100.00;100683.13;5033445;28;20048;-75
2021/12/22 00:44:56;;;;;;;18.50;7.85;;;;;;;-3.20;100.00;100697.97;5033488;28;20443;-74
2021/12/22 00:47:40;;;;;;;13.82;6.40;;;;;;;-3.29;100.00;100700.09;5033626;28;20069;-74
2021/12/22 00:50:25;;;;;;;16.60;7.72;;;;;;;-3.25;100.00;100707.16;5033652;28;20052;-74
2021/12/22 00:53:10;;;;;;;14.07;7.07;;;;;;;-3.26;100.00;100704.50;5033196;28;20041;-74
2021/12/22 00:55:54;;;;;;;19.25;7.43;;;;;;;-3.26;100.00;100707.06;5033305;28;20386;-75
2021/12/22 00:58:39;;;;;;;17.92;7.13;;;;;;;-3.26;100.00;100707.94;5032561;28;20057;-74
2021/12/22 01:01:24;;;;;;;16.13;6.85;;;;;;;-3.36;100.00;100709.19;5033230;28;20053;-74
2021/12/22 01:04:08;;;;;;;16.08;7.13;;;;;;;-3.32;100.00;100716.22;5033221;28;20049;-74
2021/12/22 01:06:53;;;;;;;16.40;7.80;;;;;;;-3.26;100.00;100707.94;5032525;28;20050;-74
2021/12/22 01:09:37;;;;;;;16.75;8.05;;;;;;;-3.29;100.00;100712.91;5033179;28;20052;-74
2021/12/22 01:12:22;;;;;;;16.27;9.18;;;;;;;-3.33;100.00;100709.34;5032473;28;20061;-74
2021/12/22 01:15:11;;;;;;;16.80;8.20;;;;;;;-3.40;100.00;100711.56;5033001;28;20033;-75
2021/12/22 01:18:01;;;;;;;20.38;8.73;;;;;;;-3.45;100.00;100706.22;5032429;28;20045;-75
2021/12/22 01:24:02;;;;;;;20.75;8.30;;;;;;;-3.56;100.00;100722.78;5032486;28;20041;-74
2021/12/22 01:26:50;;;;;;;14.57;7.75;;;;;;;-3.59;100.00;100722.66;5032406;28;20049;-74
2021/12/22 01:29:37;;;;;;;17.67;7.70;;;;;;;-3.66;100.00;100721.50;5032392;28;20045;-74
2021/12/22 01:32:22;;;;;;;15.07;6.95;;;;;;;-3.61;100.00;100731.94;5032905;28;20116;-75
2021/12/22 01:35:11;;;;;;;16.40;6.97;;;;;;;-3.68;100.00;100732.47;5032077;28;20042;-74
2021/12/22 01:37:56;;;;;;;17.00;7.50;;;;;;;-3.67;100.00;100740.25;5032112;28;20061;-75
2021/12/22 01:40:44;;;;;;;15.27;6.25;;;;;;;-3.72;100.00;100710.09;5032014;28;20336;-75
2021/12/22 01:43:28;;;;;;;14.88;7.25;;;;;;;-3.67;100.00;100731.66;5032884;28;20046;-75
2021/12/22 01:49:17;;;;;;;14.27;7.50;;;;;;;-3.66;100.00;100726.63;5032843;28;20041;-75
2021/12/22 01:52:06;;;;;;;16.83;6.47;;;;;;;-3.70;100.00;100734.09;5032591;28;20052;-75
2021/12/22 01:55:02;;;;;;;16.63;6.90;;;;;;;-3.64;100.00;100729.22;5018097;28;20121;-75
2021/12/22 01:57:49;;;;;;;33.53;12.75;;;;;;;-3.64;100.00;100729.22;5031793;28;20045;-75
2021/12/22 02:00:33;;;;;;;39.15;15.45;;;;;;;-3.62;100.00;100725.06;5032294;28;20050;-74
2021/12/22 02:03:17;;;;;;;33.80;14.07;;;;;;;-3.63;100.00;100725.88;5033003;28;20046;-75
2021/12/22 02:06:04;;;;;;;42.35;15.95;;;;;;;-3.74;100.00;100715.13;5035892;28;20042;-75
2021/12/22 02:08:49;;;;;;;34.50;13.68;;;;;;;-3.77;100.00;100723.56;5035221;28;20049;-75
2021/12/22 02:11:34;;;;;;;28.85;12.30;;;;;;;-3.83;100.00;100723.28;5035240;28;20038;-75
2021/12/22 02:14:19;;;;;;;27.08;10.68;;;;;;;-3.85;100.00;100724.00;5035104;28;20049;-75
2021/12/22 02:17:07;;;;;;;38.38;15.63;;;;;;;-4.01;100.00;100723.25;5035744;28;20041;-75
2021/12/22 02:19:52;;;;;;;41.00;16.17;;;;;;;-4.03;100.00;100736.78;5035071;28;20037;-75
2021/12/22 02:22:39;;;;;;;38.65;16.02;;;;;;;-4.09;100.00;100722.03;5035194;28;20413;-75
2021/12/22 02:25:33;;;;;;;43.15;17.63;;;;;;;-4.12;100.00;100731.25;5035879;28;20439;-75
2021/12/22 02:28:23;;;;;;;44.53;19.58;;;;;;;-4.14;100.00;100723.47;5034984;28;20354;-75
2021/12/22 02:31:13;;;;;;;43.28;17.35;;;;;;;-4.21;100.00;100725.69;5034852;28;20041;-75
2021/12/22 02:33:58;;;;;;;42.90;16.75;;;;;;;-4.26;100.00;100730.56;5035497;28;20056;-75
2021/12/22 02:36:44;;;;;;;28.88;12.82;;;;;;;-4.26;100.00;100734.00;5034805;28;20041;-74
2021/12/22 02:39:28;;;;;;;23.20;11.23;;;;;;;-4.31;100.00;100740.56;5035375;28;20045;-74
2021/12/22 02:42:13;;;;;;;24.27;11.35;;;;;;;-4.39;100.00;100734.19;5034652;28;20045;-74
2021/12/22 02:45:08;;;;;;;22.02;11.45;;;;;;;-4.32;100.00;100741.38;5035313;28;20069;-75
2021/12/22 02:47:53;;;;;;;22.63;10.38;;;;;;;-4.38;100.00;100738.53;5035282;28;20042;-75
2021/12/22 02:50:37;;;;;;;24.33;10.65;;;;;;;-4.48;100.00;100734.63;5034710;28;20041;-75
2021/12/22 02:53:27;;;;;;;23.10;10.55;;;;;;;-4.55;100.00;100737.69;5035199;28;20053;-75
2021/12/22 03:04:45;;;;;;;25.08;10.40;;;;;;;-4.80;100.00;100727.88;5035201;28;20450;-75
2021/12/22 03:07:31;;;;;;;26.75;10.45;;;;;;;-4.87;100.00;100732.63;5035189;28;20129;-75
2021/12/22 03:10:18;;;;;;;25.45;11.98;;;;;;;-4.97;100.00;100733.81;5034295;28;20056;-75
2021/12/22 03:13:04;;;;;;;27.15;11.52;;;;;;;-5.01;100.00;100732.75;5034864;28;20045;-75
2021/12/22 03:15:49;;;;;;;29.17;13.43;;;;;;;-5.07;100.00;100744.34;5033639;28;20049;-75
2021/12/22 03:18:34;;;;;;;32.35;13.65;;;;;;;-5.17;100.00;100736.22;5020318;28;20053;-75
2021/12/22 03:21:21;;;;;;;30.05;13.55;;;;;;;-5.20;100.00;100742.81;5034757;28;20044;-76
2021/12/22 03:24:06;;;;;;;27.58;12.98;;;;;;;-5.25;100.00;100744.25;5034668;28;20060;-75
2021/12/22 03:26:51;;;;;;;30.70;14.52;;;;;;;-5.34;100.00;100748.88;5034837;28;20049;-75
2021/12/22 03:29:38;;;;;;;31.25;13.43;;;;;;;-5.40;100.00;100746.84;5034835;28;20049;-75
2021/12/22 03:32:23;;;;;;;32.95;15.35;;;;;;;-5.49;100.00;100752.38;5034771;28;20045;-77
2021/12/22 03:35:08;;;;;;;32.25;13.57;;;;;;;-5.52;100.00;100751.34;5034510;28;20042;-75
2021/12/22 03:37:57;;;;;;;29.75;14.38;;;;;;;-5.60;100.00;100767.88;5034548;28;20041;-75
2021/12/22 03:40:42;;;;;;;32.33;14.35;;;;;;;-5.70;100.00;100759.72;5034470;28;20041;-75
2021/12/22 03:43:26;;;;;;;33.17;15.05;;;;;;;-5.78;100.00;100767.78;5034615;28;20038;-75
2021/12/22 03:46:12;;;;;;;31.35;14.13;;;;;;;-5.85;100.00;100763.97;5034442;28;20048;-75
2021/12/22 03:48:58;;;;;;;32.33;14.30;;;;;;;-5.94;100.00;100761.84;5034346;28;20037;-75
2021/12/22 03:51:43;;;;;;;28.90;14.75;;;;;;;-5.98;100.00;100764.13;5019942;28;20076;-75
2021/12/22 03:54:27;;;;;;;35.28;13.95;;;;;;;-5.96;100.00;100765.09;5034285;28;20045;-75
2021/12/22 03:57:12;;;;;;;34.90;14.48;;;;;;;-6.00;100.00;100769.16;5034176;28;20069;-75
2021/12/22 03:59:58;;;;;;;34.30;14.60;;;;;;;-6.01;100.00;100771.59;5033900;28;20061;-75
2021/12/22 04:02:43;;;;;;;32.78;15.13;;;;;;;-6.02;100.00;100777.50;5034322;28;20424;-75
2021/12/22 04:05:27;;;;;;;35.03;15.15;;;;;;;-6.03;100.00;100763.00;5034227;28;20046;-74
2021/12/22 04:08:15;;;;;;;36.70;15.73;;;;;;;-5.94;100.00;100778.81;5034052;28;20110;-75
2021/12/22 04:11:00;;;;;;;38.20;17.38;;;;;;;-6.01;100.00;100782.69;5033977;28;20431;-74
2021/12/22 04:13:44;;;;;;;32.75;14.88;;;;;;;-6.07;100.00;100778.94;5034042;28;20049;-75
2021/12/22 04:16:29;;;;;;;34.92;15.07;;;;;;;-6.14;100.00;100778.56;5034013;28;20463;-74
2021/12/22 04:19:13;;;;;;;36.05;14.07;;;;;;;-6.21;100.00;100784.09;5033122;28;20049;-74
2021/12/22 04:21:57;;;;;;;33.75;14.35;;;;;;;-6.21;100.00;100780.66;5033875;28;20493;-74
2021/12/22 04:24:41;;;;;;;32.28;13.98;;;;;;;-6.27;100.00;100777.75;5033831;28;20132;-74
2021/12/22 04:27:26;;;;;;;29.95;12.63;;;;;;;-6.29;100.00;100780.25;5032720;28;20045;-74
2021/12/22 04:30:11;;;;;;;30.83;13.60;;;;;;;-6.38;100.00;100779.69;5033703;28;20077;-74
2021/12/22 04:32:55;;;;;;;31.90;13.60;;;;;;;-6.41;100.00;100782.06;5033667;28;20355;-74
2021/12/22 04:35:40;;;;;;;33.00;14.90;;;;;;;-6.49;100.00;100781.63;5033820;28;20415;-74
2021/12/22 04:38:25;;;;;;;39.20;15.80;;;;;;;-6.58;100.00;100778.53;5033866;28;20042;-74
2021/12/22 04:41:09;;;;;;;37.25;15.85;;;;;;;-6.59;100.00;100785.31;5033450;28;20041;-74
2021/12/22 04:43:54;;;;;;;33.50;15.15;;;;;;;-6.65;100.00;100781.53;5032889;28;20095;-74
2021/12/22 04:46:38;;;;;;;38.00;15.27;;;;;;;-6.76;100.00;100780.88;5032533;28;20400;-74
2021/12/22 04:49:23;;;;;;;33.67;15.73;;;;;;;-6.71;100.00;100784.59;5032820;28;20053;-74
2021/12/22 04:52:09;;;;;;;36.28;15.10;;;;;;;-6.82;100.00;100783.06;5033481;28;20423;-74
2021/12/22 04:55:04;;;;;;;35.42;16.48;;;;;;;-6.80;100.00;100786.56;5033431;28;20041;-74
2021/12/22 04:57:48;;;;;;;33.42;15.48;;;;;;;-6.88;100.00;100790.34;5033373;28;20041;-74
2021/12/22 05:00:35;;;;;;;37.00;14.40;;;;;;;-6.94;100.00;100785.75;5033081;28;20057;-74
2021/12/22 05:03:20;;;;;;;37.83;16.00;;;;;;;-6.93;100.00;100782.41;5032702;28;20041;-74
2021/12/22 05:06:04;;;;;;;38.58;16.05;;;;;;;-6.94;100.00;100790.84;5032531;28;20041;-74
2021/12/22 05:08:48;;;;;;;33.42;16.90;;;;;;;-6.96;100.00;100794.97;5033349;28;20038;-74
2021/12/22 05:11:34;;;;;;;33.15;15.45;;;;;;;-6.94;100.00;100787.44;5033293;28;20041;-74
2021/12/22 05:14:18;;;;;;;33.58;16.02;;;;;;;-6.97;100.00;100790.66;5033055;28;20045;-74
2021/12/22 05:17:05;;;;;;;33.40;14.93;;;;;;;-6.99;100.00;100799.00;5018356;28;20061;-74
2021/12/22 05:19:49;;;;;;;34.17;15.30;;;;;;;-6.99;100.00;100797.31;5032991;28;20042;-74
2021/12/22 05:22:34;;;;;;;35.13;14.80;;;;;;;-7.07;100.00;100794.31;5033079;28;20347;-74
2021/12/22 05:25:18;;;;;;;30.67;14.02;;;;;;;-7.04;100.00;100795.31;5032283;28;20041;-74
2021/12/22 05:28:04;;;;;;;33.42;14.25;;;;;;;-6.97;100.00;100797.44;5032971;28;20094;-74
2021/12/22 05:30:48;;;;;;;26.67;13.07;;;;;;;-7.01;100.00;100804.00;5032236;28;20053;-74
2021/12/22 05:33:33;;;;;;;33.78;15.05;;;;;;;-7.04;100.00;100796.19;5032195;28;20041;-74
2021/12/22 05:36:17;;;;;;;31.42;15.13;;;;;;;-7.00;100.00;100799.78;5032090;28;20048;-74
2021/12/22 05:39:02;;;;;;;36.08;16.48;;;;;;;-7.01;100.00;100809.09;5034441;28;20042;-74
2021/12/22 05:41:47;;;;;;;38.67;17.52;;;;;;;-7.05;100.00;100812.25;5035731;28;20084;-74
2021/12/22 05:44:31;;;;;;;38.47;18.17;;;;;;;-7.01;100.00;100805.69;5035710;28;20431;-74
2021/12/22 05:47:15;;;;;;;35.45;15.25;;;;;;;-7.07;100.00;100789.22;5035508;28;20121;-74
2021/12/22 05:50:00;;;;;;;29.40;14.18;;;;;;;-6.92;100.00;100807.13;5036208;28;20109;-74
2021/12/22 05:52:44;;;;;;;30.40;15.05;;;;;;;-6.84;100.00;100817.75;5036099;28;20041;-74
2021/12/22 05:55:29;;;;;;;28.98;13.68;;;;;;;-6.85;100.00;100804.16;5036321;28;20041;-74
2021/12/22 05:58:14;;;;;;;31.25;14.95;;;;;;;-6.80;100.00;100818.81;5036095;28;20052;-74
2021/12/22 06:00:58;;;;;;;48.42;20.65;;;;;;;-6.81;100.00;100830.69;5036061;28;20042;-74
2021/12/22 06:03:43;;;;;;;81.93;38.75;;;;;;;-6.77;100.00;100822.44;5036040;28;20098;-74
2021/12/22 06:06:27;;;;;;;114.32;43.67;;;;;;;-6.69;100.00;100826.34;5035295;28;20053;-74
2021/12/22 06:09:11;;;;;;;54.95;25.98;;;;;;;-6.61;100.00;100830.22;5035172;28;20095;-74
2021/12/22 06:11:56;;;;;;;61.17;31.38;;;;;;;-6.57;100.00;100836.38;5035215;28;20420;-74
2021/12/22 06:14:40;;;;;;;59.72;26.80;;;;;;;-6.53;100.00;100835.78;5036042;28;20073;-74
2021/12/22 06:17:25;;;;;;;53.70;24.35;;;;;;;-6.44;100.00;100843.94;5035137;28;20057;-74
2021/12/22 06:20:10;;;;;;;64.00;28.55;;;;;;;-6.36;100.00;100841.88;5034925;28;20038;-74
2021/12/22 06:22:55;;;;;;;52.80;23.13;;;;;;;-6.24;100.00;100840.06;5034999;28;20359;-74
2021/12/22 06:25:39;;;;;;;57.45;24.75;;;;;;;-6.18;100.00;100842.94;5035116;28;20042;-74
2021/12/22 06:28:24;;;;;;;53.38;23.90;;;;;;;-6.10;100.00;100848.50;5035046;28;20048;-74
2021/12/22 06:31:08;;;;;;;49.47;24.50;;;;;;;-6.10;100.00;100845.94;5035600;28;20045;-74
2021/12/22 06:33:53;;;;;;;48.97;23.30;;;;;;;-6.03;100.00;100853.16;5035638;28;20041;-74
2021/12/22 06:36:37;;;;;;;49.85;23.45;;;;;;;-6.01;100.00;100855.78;5035565;28;20435;-74
2021/12/22 06:39:22;;;;;;;43.05;20.17;;;;;;;-6.07;100.00;100855.47;5035495;28;20042;-74
2021/12/22 06:42:08;;;;;;;45.60;21.38;;;;;;;-6.03;100.00;100862.50;5034713;28;20041;-74
2021/12/22 06:44:52;;;;;;;42.88;21.45;;;;;;;-6.05;100.00;100864.94;5035432;28;20056;-74
2021/12/22 06:47:37;;;;;;;44.35;20.80;;;;;;;-6.06;100.00;100862.31;5035290;28;20041;-74
2021/12/22 06:50:21;;;;;;;44.92;20.45;;;;;;;-6.09;100.00;100864.69;5034878;28;20041;-74
2021/12/22 06:53:06;;;;;;;39.55;17.95;;;;;;;-6.13;100.00;100872.16;5035162;28;20049;-74
2021/12/22 06:55:51;;;;;;;36.63;17.10;;;;;;;-6.14;100.00;100872.94;5035249;28;20045;-74
2021/12/22 06:58:35;;;;;;;50.78;23.17;;;;;;;-6.14;100.00;100882.28;5034122;28;20042;-74
2021/12/22 07:01:21;;;;;;;64.85;29.90;;;;;;;-6.15;100.00;100881.38;5034732;28;20048;-75
2021/12/22 07:04:05;;;;;;;47.03;21.70;;;;;;;-6.18;100.00;100887.97;5034464;28;20098;-74
2021/12/22 07:06:49;;;;;;;63.60;26.25;;;;;;;-6.19;100.00;100889.66;5034984;28;20373;-74
2021/12/22 07:09:34;;;;;;;65.20;35.05;;;;;;;-6.12;100.00;100894.31;5035184;28;20042;-74
2021/12/22 07:12:19;;;;;;;139.32;60.25;;;;;;;-6.12;100.00;100895.97;5034644;28;20053;-74
2021/12/22 07:15:03;;;;;;;215.95;87.78;;;;;;;-6.12;100.00;100896.84;5035477;28;20033;-74
2021/12/22 07:17:50;;;;;;;172.02;76.38;;;;;;;-6.10;100.00;100896.09;5034959;28;20041;-74
2021/12/22 07:20:35;;;;;;;164.77;74.22;;;;;;;-6.09;100.00;100898.72;5035071;28;20338;-74
2021/12/22 07:23:19;;;;;;;179.18;75.63;;;;;;;-6.03;100.00;100900.75;5020243;28;20371;-74
2021/12/22 07:26:04;;;;;;;101.28;50.75;;;;;;;-6.09;100.00;100908.03;5034049;28;20170;-74
2021/12/22 07:28:49;;;;;;;76.57;36.20;;;;;;;-6.03;100.00;100908.41;5034428;28;20053;-74
2021/12/22 07:31:34;;;;;;;59.25;28.05;;;;;;;-6.01;100.00;100911.91;5019640;28;20347;-75
2021/12/22 07:34:34;;;;;;;58.30;26.60;;;;;;;-5.95;100.00;100915.69;5066278;27;20045;-75
2021/12/22 07:37:56;;;;;;;53.58;24.13;;;;;;;-5.88;100.00;100910.16;5052678;28;20041;-75
2021/12/22 07:40:40;;;;;;;48.53;22.33;;;;;;;-5.80;100.00;100907.16;5050350;28;20061;-75
2021/12/22 07:43:27;;;;;;;54.67;25.50;;;;;;;-5.77;100.00;100905.66;5052764;28;20052;-76
2021/12/22 07:46:11;;;;;;;61.20;26.42;;;;;;;-5.69;100.00;100908.66;5052611;28;20041;-76
2021/12/22 07:48:56;;;;;;;70.50;28.38;;;;;;;-5.65;100.00;100911.47;5052514;28;20116;-75
2021/12/22 07:51:40;;;;;;;75.03;31.08;;;;;;;-5.55;100.00;100912.00;5052453;28;20049;-75
2021/12/22 07:54:24;;;;;;;65.35;28.20;;;;;;;-5.47;100.00;100913.31;5037843;28;20043;-75
2021/12/22 07:57:09;;;;;;;93.38;37.22;;;;;;;-5.37;100.00;100913.03;5052390;28;20109;-75
2021/12/22 07:59:53;;;;;;;83.93;36.65;;;;;;;-5.20;100.00;100922.53;5052203;28;20439;-75
2021/12/22 08:02:37;;;;;;;91.20;43.17;;;;;;;-5.01;100.00;100914.19;5053123;28;20056;-75
2021/12/22 08:05:22;;;;;;;110.90;55.67;;;;;;;-4.81;100.00;100922.06;5053831;28;20051;-75
2021/12/22 08:08:07;;;;;;;86.15;40.30;;;;;;;-4.88;100.00;100918.28;5053993;28;20093;-75
2021/12/22 08:10:51;;;;;;;73.03;30.50;;;;;;;-4.80;100.00;100919.59;5054320;28;20045;-75
2021/12/22 08:13:36;;;;;;;64.38;28.50;;;;;;;-4.59;100.00;100913.88;5053672;28;20450;-75
2021/12/22 08:16:20;;;;;;;54.92;25.13;;;;;;;-4.36;100.00;100912.53;5053241;28;20060;-75
2021/12/22 08:19:04;;;;;;;60.75;24.90;;;;;;;-4.14;100.00;100912.84;5054087;28;20037;-75
2021/12/22 08:21:48;;;;;;;92.60;33.13;;;;;;;-3.97;100.00;100929.06;5053743;28;20045;-75
2021/12/22 08:24:33;;;;;;;115.40;39.70;;;;;;;-3.87;100.00;100915.03;5053307;28;20108;-74
2021/12/22 08:27:18;;;;;;;88.78;35.22;;;;;;;-3.76;100.00;100927.59;5052932;28;20045;-75
2021/12/22 08:30:04;;;;;;;66.93;30.95;;;;;;;-3.59;100.00;100925.88;5053082;28;20431;-75
2021/12/22 08:32:48;;;;;;;58.95;26.52;;;;;;;-3.61;100.00;100924.91;5053158;28;20045;-75
2021/12/22 08:38:50;;;;;;;58.60;26.65;;;;;;;-3.46;100.00;100927.34;5053265;28;20047;-75
2021/12/22 08:38:50;;;;;;;96.07;35.67;;;;;;;-3.23;100.00;100933.59;5052977;28;20065;-75
2021/12/22 08:41:39;;;;;;;142.85;50.90;;;;;;;-3.12;100.00;100927.31;5052714;28;20056;-75
2021/12/22 08:44:25;;;;;;;108.20;44.30;;;;;;;-2.92;100.00;100935.94;5052867;28;20120;-75
2021/12/22 08:47:10;;;;;;;143.95;57.95;;;;;;;-3.04;100.00;100929.34;5053064;28;20041;-75
2021/12/22 08:49:54;;;;;;;140.88;56.63;;;;;;;-2.57;100.00;100939.22;5053749;28;20041;-75
2021/12/22 08:52:39;;;;;;;141.20;57.33;;;;;;;-2.54;100.00;100938.50;5053149;28;20276;-75
2021/12/22 08:55:23;;;;;;;74.88;35.15;;;;;;;-2.54;100.00;100941.94;5052568;28;20057;-75
2021/12/22 08:58:07;;;;;;;42.00;20.55;;;;;;;-2.39;100.00;100947.78;5052801;28;20045;-75
2021/12/22 09:00:52;;;;;;;42.53;20.50;;;;;;;-2.40;100.00;100925.50;5052840;28;20065;-75
2021/12/22 09:03:36;;;;;;;49.60;22.92;;;;;;;-2.11;100.00;100931.06;5053536;28;20069;-75
2021/12/22 09:06:21;;;;;;;182.30;74.57;;;;;;;-2.17;100.00;100931.66;5052735;28;20353;-74
2021/12/22 09:09:07;;;;;;;124.10;47.45;;;;;;;-2.16;100.00;100929.97;5052754;28;20037;-75
2021/12/22 09:11:52;;;;;;;57.20;27.23;;;;;;;-2.20;100.00;100928.06;5038106;28;20041;-75
2021/12/22 09:14:37;;;;;;;50.65;25.60;;;;;;;-2.03;100.00;100933.94;5053242;28;20041;-75
2021/12/22 09:17:21;;;;;;;36.10;20.13;;;;;;;-2.13;100.00;100930.97;5053368;28;20045;-75
2021/12/22 09:20:06;;;;;;;23.88;14.00;;;;;;;-1.88;100.00;100925.22;5052843;28;20041;-74
2021/12/22 09:22:50;;;;;;;46.22;22.48;;;;;;;-2.16;100.00;100925.69;5052256;28;20041;-74
2021/12/22 09:25:35;;;;;;;38.25;20.15;;;;;;;-1.85;100.00;100927.03;5052018;28;20303;-75
2021/12/22 09:28:19;;;;;;;43.72;21.10;;;;;;;-1.83;100.00;100930.53;5052647;28;20355;-75
2021/12/22 09:31:05;;;;;;;52.78;24.73;;;;;;;-2.08;100.00;100932.84;5052667;28;20065;-74
2021/12/22 09:33:50;;;;;;;35.20;18.20;;;;;;;-1.96;100.00;100924.00;5052563;28;20052;-74
2021/12/22 09:36:35;;;;;;;26.75;15.57;;;;;;;-1.92;100.00;100925.91;5052575;28;20053;-75
2021/12/22 09:39:20;;;;;;;50.10;25.83;;;;;;;-1.85;100.00;100929.63;5051692;28;20350;-75
2021/12/22 09:42:05;;;;;;;139.23;79.97;;;;;;;-1.80;100.00;100930.66;5051768;28;20037;-75
2021/12/22 09:44:50;;;;;;;65.53;38.88;;;;;;;-1.68;100.00;100928.63;5052889;28;20045;-74
2021/12/22 09:47:50;;;;;;;26.85;16.23;;;;;;;-1.69;100.00;100919.16;5052063;28;20034;-74
2021/12/22 09:50:46;;;;;;;25.70;12.93;;;;;;;-1.34;100.00;100913.72;5052160;28;20356;-75
2021/12/22 09:53:36;;;;;;;21.17;11.07;;;;;;;-1.48;100.00;100916.59;5052109;28;20041;-75
2021/12/22 09:56:24;;;;;;;23.50;14.35;;;;;;;-1.38;100.00;100927.25;5052313;28;20068;-75
2021/12/22 09:59:10;;;;;;;27.83;15.77;;;;;;;-1.16;100.00;100921.28;5051373;28;20049;-75
2021/12/22 10:01:54;;;;;;;24.02;13.88;;;;;;;-0.84;100.00;100926.00;5052251;28;20041;-75
2021/12/22 10:04:38;;;;;;;19.73;11.50;;;;;;;-0.99;100.00;100927.97;5052158;28;20041;-75
2021/12/22 10:07:27;;;;;;;18.05;9.15;;;;;;;-1.17;100.00;100928.09;5037442;28;20045;-75
2021/12/22 10:10:13;;;;;;;17.45;9.65;;;;;;;-1.26;100.00;100922.63;5051444;28;20130;-75
2021/12/22 10:13:26;;;;;;;20.02;9.70;;;;;;;-1.30;100.00;100926.75;5037593;28;20042;-75
2021/12/22 10:16:20;;;;;;;20.27;11.48;;;;;;;-1.30;100.00;100925.88;5052172;28;20167;-75
2021/12/22 10:19:07;;;;;;;17.77;11.52;;;;;;;-1.56;100.00;100928.28;5051509;28;20506;-75
2021/12/22 10:21:58;;;;;;;49.25;28.25;;;;;;;-1.19;100.00;100912.63;5052456;28;20037;-75
2021/12/22 10:24:44;;;;;;;27.90;16.80;;;;;;;-1.16;100.00;100918.72;5053155;28;20123;-75
2021/12/22 10:27:29;;;;;;;25.92;13.15;;;;;;;-1.12;100.00;100921.47;5055003;28;20045;-75
2021/12/22 10:30:29;;;;;;;33.05;17.05;;;;;;;-1.33;100.00;100916.34;5055595;28;20124;-75
2021/12/22 10:33:22;;;;;;;37.60;19.70;;;;;;;-1.20;100.00;100916.03;5054598;28;20037;-75
2021/12/22 10:36:21;;;;;;;22.60;12.93;;;;;;;-1.24;100.00;100919.28;5055634;28;20037;-75
2021/12/22 10:39:05;;;;;;;21.80;11.80;;;;;;;-1.34;100.00;100924.88;5054582;28;20052;-75
2021/12/22 10:41:51;;;;;;;18.88;10.55;;;;;;;-1.24;100.00;100920.97;5108384;27;20037;-75
2021/12/22 10:44:40;;;;;;;19.13;10.07;;;;;;;-1.21;100.00;100913.38;5044878;27;20037;-75
2021/12/22 10:49:14;;;;;;;15.73;10.00;;;;;;;-1.26;100.00;100920.06;5149512;27;20042;-75
2021/12/22 10:50:39;;;;;;;;;;;;;;;-1.29;100.00;100922.50;5158304;27;20042;-75
2021/12/22 10:53:23;;;;;;;14.00;7.20;;;;;;;-1.15;100.00;100917.91;5158566;27;20321;-75
2021/12/22 10:56:08;;;;;;;15.05;9.13;;;;;;;-0.93;100.00;100912.78;5158458;27;20345;-75
2021/12/22 10:59:19;;;;;;;19.70;10.60;;;;;;;-1.02;100.00;100917.56;5158171;27;20063;-76
2021/12/22 11:02:08;;;;;;;45.15;21.48;;;;;;;-1.24;100.00;100901.28;5158313;27;20030;-76
2021/12/22 11:04:52;;;;;;;21.75;12.27;;;;;;;-1.47;100.00;100894.34;5142891;27;20051;-75
2021/12/22 11:07:41;;;;;;;18.67;8.13;;;;;;;-1.41;100.00;100880.03;5157978;27;20035;-74
2021/12/22 11:10:28;;;;;;;35.80;13.95;;;;;;;-1.43;100.00;100885.94;5143399;27;20043;-76
2021/12/22 11:13:21;;;;;;;33.08;12.98;;;;;;;-1.77;100.00;100878.56;5158587;27;20039;-76
2021/12/22 11:16:14;;;;;;;33.17;15.57;;;;;;;-1.36;100.00;100876.81;5157562;27;20039;-75
2021/12/22 11:19:10;;;;;;;21.55;11.80;;;;;;;-1.08;100.00;100884.75;5144295;27;20039;-75
2021/12/22 11:22:02;;;;;;;18.45;10.82;;;;;;;-0.84;100.00;100887.41;5159968;27;20035;-75
2021/12/22 11:24:52;;;;;;;20.58;11.93;;;;;;;-1.21;100.00;100879.97;5159744;27;20049;-75
2021/12/22 11:27:38;;;;;;;20.15;10.60;;;;;;;-1.20;100.00;100877.47;5159960;27;20058;-75
2021/12/22 11:30:26;;;;;;;18.33;10.65;;;;;;;-0.88;100.00;100882.94;5159817;27;20050;-76
2021/12/22 11:33:10;;;;;;;15.05;8.85;;;;;;;-1.47;100.00;100884.94;5159571;27;20340;-76
2021/12/22 11:35:56;;;;;;;18.35;9.90;;;;;;;-1.88;100.00;100875.53;5158872;27;20423;-76
2021/12/22 11:38:41;;;;;;;15.80;8.90;;;;;;;-1.81;100.00;100863.84;5159947;27;20424;-76
2021/12/22 11:41:27;;;;;;;18.10;9.60;;;;;;;-1.58;100.00;100863.06;5159335;27;20163;-76
2021/12/22 11:44:13;;;;;;;21.13;11.63;;;;;;;-1.34;100.00;100852.88;5159844;27;20045;-75
2021/12/22 11:47:01;;;;;;;19.13;11.13;;;;;;;-1.33;100.00;100854.66;5158664;27;20420;-76
2021/12/22 11:49:52;;;;;;;22.02;11.65;;;;;;;-1.32;100.00;100856.41;5158478;27;20146;-75
2021/12/22 11:52:59;;;;;;;18.40;10.18;;;;;;;-1.48;100.00;100852.34;5158708;27;20384;-75
2021/12/22 11:55:50;;;;;;;18.65;9.55;;;;;;;-1.30;100.00;100856.44;5143958;27;20118;-76
2021/12/22 11:58:35;;;;;;;27.55;13.00;;;;;;;-1.55;100.00;100859.75;5159369;27;20038;-75
2021/12/22 12:01:19;;;;;;;22.98;13.50;;;;;;;-2.00;100.00;100859.63;5159442;27;20035;-75
2021/12/22 12:04:14;;;;;;;17.67;10.23;;;;;;;-1.59;100.00;100863.00;5144108;27;20031;-76
2021/12/22 12:07:00;;;;;;;19.52;10.10;;;;;;;-2.09;100.00;100854.09;5159167;27;20039;-76
2021/12/22 12:09:47;;;;;;;19.30;10.68;;;;;;;-1.94;100.00;100841.91;5158223;27;20473;-76
2021/12/22 12:12:48;;;;;;;18.75;10.00;;;;;;;-1.78;100.00;100851.13;5158830;27;20046;-75
2021/12/22 12:21:38;;;;;;;18.52;9.13;;;;;;;-2.01;100.00;100850.16;5143813;27;20095;-75
2021/12/22 12:22:33;;;;;;;26.90;13.52;;;;;;;-1.66;100.00;100854.16;5159099;27;20038;-75
2021/12/22 12:25:20;;;;;;;38.17;17.90;;;;;;;-1.80;100.00;100850.16;5157915;27;20039;-75
2021/12/22 12:28:16;;;;;;;33.10;16.20;;;;;;;-1.47;100.00;100859.22;5158044;27;20110;-75
2021/12/22 12:31:01;;;;;;;26.98;14.82;;;;;;;-2.01;100.00;100861.31;5158726;27;20117;-75
2021/12/22 12:33:46;;;;;;;39.38;20.15;;;;;;;-1.61;100.00;100859.50;5157880;27;20042;-75
2021/12/22 12:36:32;;;;;;;269.65;93.25;;;;;;;-1.52;100.00;100854.75;5159031;27;20065;-75
2021/12/22 12:39:52;;;;;;;110.72;52.38;;;;;;;-1.87;100.00;100849.03;5157477;27;20043;-75
2021/12/22 12:42:59;;;;;;;27.63;17.80;;;;;;;-1.79;100.00;100842.50;5157473;27;20049;-75
2021/12/22 12:45:48;;;;;;;23.08;17.00;;;;;;;-1.74;100.00;100845.28;5157474;27;20035;-76
2021/12/22 12:48:32;;;;;;;19.67;12.13;;;;;;;-1.78;100.00;100841.72;5157732;27;20047;-75